Time;durP1;ratioP1;P1;durP2;ratioP2;P2;SDS_P1;SDS_P2;PMS_P1;PMS_P2;Temp;Humidity;BMP_temperature;BMP_pressure;BME280_temperature;BME280_humidity;BME280_pressure;Samples;Min_cycle;Max_cycle;Signal;HPM_P1;HPM_P2
2021/03/31 00:00:39;;;;;;;10.32;4.43;;;9.60;99.90;;;;;;4981027;28;20054;-68
2021/03/31 00:03:13;;;;;;;4.82;3.35;;;9.50;99.90;;;;;;4980270;28;20108;-66
2021/03/31 00:05:40;;;;;;;7.03;3.83;;;9.50;99.90;;;;;;4982936;28;20054;-65
2021/03/31 00:08:07;;;;;;;11.15;4.07;;;9.50;99.90;;;;;;4977534;28;20468;-66
2021/03/31 00:10:38;;;;;;;7.35;3.90;;;9.50;99.90;;;;;;4981075;28;20688;-65
2021/03/31 00:13:04;;;;;;;8.43;4.78;;;9.50;99.90;;;;;;4978407;28;20124;-68
2021/03/31 00:15:32;;;;;;;5.95;3.78;;;9.50;99.90;;;;;;4981444;28;20388;-68
2021/03/31 00:18:05;;;;;;;9.45;4.90;;;9.50;99.90;;;;;;4977803;28;20420;-65
2021/03/31 00:20:32;;;;;;;12.90;4.47;;;9.50;99.90;;;;;;4984419;28;20105;-65
2021/03/31 00:23:01;;;;;;;10.23;8.18;;;9.40;99.90;;;;;;4982062;28;20135;-71
2021/03/31 00:25:28;;;;;;;9.73;3.97;;;9.40;99.90;;;;;;4982376;28;20042;-66
2021/03/31 00:27:54;;;;;;;9.77;4.10;;;9.40;99.90;;;;;;4981595;28;20091;-66
2021/03/31 00:30:21;;;;;;;10.98;5.25;;;9.40;99.90;;;;;;4980099;28;20054;-67
2021/03/31 00:32:48;;;;;;;13.23;5.72;;;9.40;99.90;;;;;;4983874;28;20382;-66
2021/03/31 00:35:14;;;;;;;8.40;3.92;;;9.40;99.90;;;;;;4981497;28;20046;-65
2021/03/31 00:37:41;;;;;;;5.13;4.13;;;9.30;99.90;;;;;;4981625;28;20047;-66
2021/03/31 00:40:11;;;;;;;9.75;4.45;;;9.30;99.90;;;;;;4977016;28;20057;-70
2021/03/31 00:42:38;;;;;;;8.27;4.03;;;9.20;99.90;;;;;;4980663;28;20112;-66
2021/03/31 00:45:06;;;;;;;10.55;4.45;;;9.20;99.90;;;;;;4978676;28;20073;-65
2021/03/31 00:47:33;;;;;;;11.77;4.43;;;9.10;99.90;;;;;;4984232;28;20153;-68
2021/03/31 00:50:00;;;;;;;10.25;4.80;;;9.10;99.90;;;;;;4979416;28;20054;-65
2021/03/31 00:52:27;;;;;;;8.55;4.50;;;9.10;99.90;;;;;;4982677;28;20049;-66
2021/03/31 00:54:54;;;;;;;9.38;4.60;;;9.10;99.90;;;;;;4979217;28;20054;-66
2021/03/31 00:57:21;;;;;;;9.35;5.20;;;9.00;99.90;;;;;;4980361;28;20062;-66
2021/03/31 00:59:47;;;;;;;6.30;4.30;;;9.00;99.90;;;;;;4977170;28;20057;-68
2021/03/31 01:02:14;;;;;;;6.22;4.18;;;9.00;99.90;;;;;;4976959;28;20524;-65
2021/03/31 01:04:40;;;;;;;10.40;5.25;;;9.00;99.90;;;;;;4978864;28;20456;-65
2021/03/31 01:07:07;;;;;;;10.02;4.03;;;8.90;99.90;;;;;;4984276;28;20069;-65
2021/03/31 01:09:34;;;;;;;10.77;4.65;;;8.80;99.90;;;;;;4978399;28;20054;-66
2021/03/31 01:12:32;;;;;;;12.38;6.13;;;8.80;99.90;;;;;;4980414;28;20053;-66
2021/03/31 01:15:18;;;;;;;9.40;4.30;;;8.80;99.90;;;;;;4977022;28;22111;-65
2021/03/31 01:17:57;;;;;;;12.18;6.22;;;8.70;99.90;;;;;;4981109;28;20121;-65
2021/03/31 01:20:48;;;;;;;11.90;5.18;;;8.70;99.90;;;;;;4979271;28;20053;-71
2021/03/31 01:23:42;;;;;;;9.57;5.07;;;8.70;99.90;;;;;;4981335;28;20100;-70
2021/03/31 01:26:29;;;;;;;12.82;4.75;;;8.70;99.90;;;;;;4978520;28;20062;-65
2021/03/31 01:29:01;;;;;;;15.93;6.03;;;8.70;99.90;;;;;;4980816;28;20050;-65
2021/03/31 01:31:30;;;;;;;13.07;5.45;;;8.60;99.90;;;;;;4978310;28;20054;-64
2021/03/31 01:34:22;;;;;;;5.72;4.25;;;8.70;99.90;;;;;;4977880;28;20058;-66
2021/03/31 01:36:54;;;;;;;11.65;4.95;;;8.60;99.90;;;;;;4977737;28;20495;-70
2021/03/31 01:39:22;;;;;;;12.52;5.55;;;8.70;99.90;;;;;;4972012;28;20050;-66
2021/03/31 01:41:50;;;;;;;6.03;3.83;;;8.70;99.90;;;;;;4978986;28;20398;-67
2021/03/31 01:44:19;;;;;;;6.65;5.35;;;8.70;99.90;;;;;;4977477;28;20058;-66
2021/03/31 01:46:52;;;;;;;8.43;5.00;;;8.70;99.90;;;;;;4980459;28;20060;-70
2021/03/31 01:49:21;;;;;;;12.77;6.13;;;8.60;99.90;;;;;;4978984;28;20046;-67
2021/03/31 01:51:52;;;;;;;8.63;5.43;;;8.70;99.90;;;;;;4976897;28;20520;-71
2021/03/31 01:54:19;;;;;;;6.72;4.25;;;8.70;99.90;;;;;;4977934;28;20760;-68
2021/03/31 01:56:47;;;;;;;11.57;5.03;;;8.80;99.90;;;;;;4979045;28;20480;-70
2021/03/31 01:59:18;;;;;;;7.68;4.85;;;8.70;99.90;;;;;;4981309;28;20074;-67
2021/03/31 02:01:47;;;;;;;10.07;5.50;;;8.70;99.90;;;;;;4979479;28;20057;-68
2021/03/31 02:04:14;;;;;;;15.57;6.50;;;8.70;99.90;;;;;;4978687;28;20093;-65
2021/03/31 02:06:42;;;;;;;7.18;5.55;;;8.70;99.90;;;;;;4978512;28;20113;-68
2021/03/31 02:09:10;;;;;;;5.75;4.80;;;8.70;99.90;;;;;;4978369;28;20047;-66
2021/03/31 02:11:40;;;;;;;11.10;5.32;;;8.70;99.90;;;;;;4978751;28;20050;-69
2021/03/31 02:14:07;;;;;;;10.10;6.03;;;8.80;99.90;;;;;;4978019;28;20060;-68
2021/03/31 02:16:34;;;;;;;8.98;5.03;;;8.80;99.90;;;;;;4978343;28;20108;-66
2021/03/31 02:19:02;;;;;;;10.77;6.25;;;8.80;99.90;;;;;;4980983;28;20038;-67
2021/03/31 02:21:30;;;;;;;8.50;4.97;;;8.70;99.90;;;;;;4978445;28;20389;-73
2021/03/31 02:23:58;;;;;;;7.28;4.63;;;8.70;99.90;;;;;;4977057;28;20051;-69
2021/03/31 02:26:27;;;;;;;6.50;5.22;;;8.70;99.90;;;;;;4976237;28;20061;-69
2021/03/31 02:28:54;;;;;;;10.97;5.47;;;8.60;99.90;;;;;;4980212;28;20073;-69
2021/03/31 02:31:21;;;;;;;15.02;5.53;;;8.60;99.90;;;;;;4981016;28;20105;-71
2021/03/31 02:33:49;;;;;;;9.88;5.82;;;8.50;99.90;;;;;;4979376;28;20130;-71
2021/03/31 02:36:19;;;;;;;9.57;5.43;;;8.50;99.90;;;;;;4979585;28;20051;-69
2021/03/31 02:38:47;;;;;;;11.10;6.57;;;8.50;99.90;;;;;;4978322;28;20055;-70
2021/03/31 02:41:15;;;;;;;11.07;5.97;;;8.40;99.90;;;;;;4979689;28;20053;-70
2021/03/31 02:43:48;;;;;;;9.05;4.28;;;8.40;99.90;;;;;;4979534;28;20054;-72
2021/03/31 02:46:21;;;;;;;6.47;4.43;;;8.40;99.90;;;;;;4975780;28;20046;-67
2021/03/31 02:48:49;;;;;;;9.50;5.93;;;8.30;99.90;;;;;;4979311;28;20109;-65
2021/03/31 02:51:17;;;;;;;6.15;5.55;;;8.30;99.90;;;;;;4976832;28;20050;-67
2021/03/31 02:53:44;;;;;;;11.07;5.00;;;8.30;99.90;;;;;;4978635;28;20057;-71
2021/03/31 02:56:13;;;;;;;13.10;5.72;;;8.30;99.90;;;;;;4978489;28;20057;-67
2021/03/31 02:58:43;;;;;;;8.07;4.13;;;8.20;99.90;;;;;;4978647;28;20058;-64
2021/03/31 03:01:09;;;;;;;11.40;5.55;;;8.20;99.90;;;;;;4981003;28;20086;-65
2021/03/31 03:03:37;;;;;;;10.05;6.20;;;8.20;99.90;;;;;;4978632;28;20062;-72
2021/03/31 03:06:05;;;;;;;9.68;4.78;;;8.10;99.90;;;;;;4978797;28;20456;-66
2021/03/31 03:08:32;;;;;;;7.68;4.80;;;8.10;99.90;;;;;;4977253;28;20066;-65
2021/03/31 03:11:03;;;;;;;12.80;5.88;;;8.00;99.90;;;;;;4979466;28;20071;-65
2021/03/31 03:13:30;;;;;;;10.20;5.20;;;8.00;99.90;;;;;;4977646;28;20460;-66
2021/03/31 03:15:58;;;;;;;6.40;4.88;;;7.90;99.90;;;;;;4977669;28;20116;-73
2021/03/31 03:18:25;;;;;;;11.98;6.15;;;7.90;99.90;;;;;;4977482;28;20050;-66
2021/03/31 03:20:52;;;;;;;7.97;4.15;;;7.90;99.90;;;;;;4979510;28;20146;-67
2021/03/31 03:23:19;;;;;;;9.45;4.75;;;7.90;99.90;;;;;;4979775;28;20055;-66
2021/03/31 03:25:47;;;;;;;10.75;5.15;;;7.90;99.90;;;;;;4982514;28;20077;-68
2021/03/31 03:28:24;;;;;;;8.18;4.70;;;7.80;99.90;;;;;;4979910;28;20058;-66
2021/03/31 03:30:52;;;;;;;8.23;4.97;;;7.90;99.90;;;;;;4983495;28;20050;-65
2021/03/31 03:33:19;;;;;;;17.55;6.47;;;7.90;99.90;;;;;;4981538;28;20058;-67
2021/03/31 03:35:46;;;;;;;10.80;4.65;;;7.80;99.90;;;;;;4983926;28;20054;-72
2021/03/31 03:38:14;;;;;;;13.60;5.72;;;7.80;99.90;;;;;;4981702;28;20408;-68
2021/03/31 03:40:45;;;;;;;7.78;4.43;;;7.70;99.90;;;;;;4983708;28;20423;-71
2021/03/31 03:43:15;;;;;;;13.32;5.38;;;7.70;99.90;;;;;;4980683;28;20070;-68
2021/03/31 03:45:43;;;;;;;9.98;5.95;;;7.60;99.90;;;;;;4982698;28;20042;-66
2021/03/31 03:48:11;;;;;;;6.97;5.05;;;7.60;99.90;;;;;;4987008;28;20050;-71
2021/03/31 03:50:38;;;;;;;8.77;5.00;;;7.50;99.90;;;;;;4982871;28;20046;-70
2021/03/31 03:53:04;;;;;;;6.07;4.72;;;7.50;99.90;;;;;;4979192;28;20136;-71
2021/03/31 03:55:34;;;;;;;8.20;5.30;;;7.40;99.90;;;;;;4982858;28;20488;-68
2021/03/31 03:58:09;;;;;;;17.65;4.90;;;7.40;99.90;;;;;;4983189;28;20058;-69
2021/03/31 04:00:37;;;;;;;17.58;6.50;;;7.40;99.90;;;;;;4979678;28;20061;-70
2021/03/31 04:03:04;;;;;;;12.93;5.97;;;7.40;99.90;;;;;;4980311;28;20516;-69
2021/03/31 04:05:31;;;;;;;14.70;5.88;;;7.30;99.90;;;;;;4979370;28;20144;-65
2021/03/31 04:07:57;;;;;;;8.57;5.05;;;7.30;99.90;;;;;;4977382;28;20054;-67
2021/03/31 04:10:27;;;;;;;12.35;5.63;;;7.30;99.90;;;;;;4993562;28;20054;-69
2021/03/31 04:12:56;;;;;;;10.95;5.10;;;7.20;99.90;;;;;;4982330;28;20054;-65
2021/03/31 04:15:24;;;;;;;17.05;6.45;;;7.20;99.90;;;;;;4980665;28;20058;-65
2021/03/31 04:17:51;;;;;;;10.68;4.20;;;7.20;99.90;;;;;;4981723;28;20050;-68
2021/03/31 04:20:23;;;;;;;8.18;5.63;;;7.20;99.90;;;;;;4978795;28;20054;-64
2021/03/31 04:22:49;;;;;;;9.90;5.35;;;7.10;99.90;;;;;;4986524;28;20066;-68
2021/03/31 04:25:18;;;;;;;14.32;5.72;;;7.20;99.90;;;;;;4981105;28;20096;-66
2021/03/31 04:27:50;;;;;;;14.68;5.97;;;7.10;99.90;;;;;;4982668;28;20061;-68
2021/03/31 04:30:19;;;;;;;9.25;4.90;;;7.10;99.90;;;;;;4978587;28;20057;-65
2021/03/31 04:32:48;;;;;;;12.13;5.27;;;7.10;99.90;;;;;;4978399;28;20054;-73
2021/03/31 04:35:17;;;;;;;13.98;5.10;;;7.10;99.90;;;;;;4980397;28;20046;-67
2021/03/31 04:37:44;;;;;;;10.55;4.72;;;7.00;99.90;;;;;;4982361;28;20049;-66
2021/03/31 04:40:16;;;;;;;10.27;5.78;;;7.10;99.90;;;;;;4977190;28;20049;-66
2021/03/31 04:42:43;;;;;;;9.98;6.22;;;7.10;99.90;;;;;;4983200;28;20038;-64
2021/03/31 04:45:12;;;;;;;9.45;4.82;;;7.10;99.90;;;;;;4980186;28;20071;-72
2021/03/31 04:47:39;;;;;;;9.43;5.03;;;7.10;99.90;;;;;;4985221;28;20050;-70
2021/03/31 04:50:08;;;;;;;8.73;4.38;;;7.10;99.90;;;;;;4979370;28;20091;-72
2021/03/31 04:52:35;;;;;;;10.68;5.47;;;7.10;99.90;;;;;;4982915;28;20046;-65
2021/03/31 04:55:03;;;;;;;8.18;4.88;;;7.10;99.90;;;;;;4979173;28;20042;-70
2021/03/31 04:57:29;;;;;;;11.75;4.80;;;7.10;99.90;;;;;;4981538;28;20488;-68
2021/03/31 04:59:56;;;;;;;17.02;6.18;;;7.10;99.90;;;;;;4980752;28;20046;-66
2021/03/31 05:02:22;;;;;;;8.45;5.80;;;7.10;99.90;;;;;;4979578;28;20145;-68
2021/03/31 05:04:49;;;;;;;7.95;5.38;;;7.10;99.90;;;;;;4980789;28;20089;-67
2021/03/31 05:07:15;;;;;;;14.02;5.30;;;7.10;99.90;;;;;;4981735;28;20052;-68
2021/03/31 05:09:42;;;;;;;14.00;5.07;;;7.10;99.90;;;;;;4979020;28;20471;-70
2021/03/31 05:12:09;;;;;;;18.65;5.50;;;7.10;99.90;;;;;;4979435;28;20530;-70
2021/03/31 05:14:35;;;;;;;11.13;6.72;;;7.10;99.90;;;;;;4980166;28;20140;-67
2021/03/31 05:17:02;;;;;;;8.98;4.95;;;7.10;99.90;;;;;;4979803;28;20045;-68
2021/03/31 05:19:29;;;;;;;11.40;5.88;;;7.10;99.90;;;;;;4981483;28;20049;-66
2021/03/31 05:21:55;;;;;;;12.73;4.95;;;7.10;99.90;;;;;;4981212;28;20465;-66
2021/03/31 05:24:21;;;;;;;17.55;5.22;;;7.10;99.90;;;;;;4979880;28;20125;-68
2021/03/31 05:26:48;;;;;;;15.60;5.20;;;7.20;99.90;;;;;;4979858;28;20050;-71
2021/03/31 05:29:14;;;;;;;5.38;4.25;;;7.20;99.90;;;;;;4980562;28;20380;-66
2021/03/31 05:31:59;;;;;;;12.13;5.18;;;7.20;99.90;;;;;;4978705;28;20061;-65
2021/03/31 05:34:26;;;;;;;15.18;5.10;;;7.20;99.90;;;;;;4981348;28;20133;-67
2021/03/31 05:36:53;;;;;;;12.95;8.65;;;7.30;99.90;;;;;;4980027;28;20144;-65
2021/03/31 05:39:19;;;;;;;10.75;4.35;;;7.30;99.90;;;;;;4981841;28;20125;-65
2021/03/31 05:41:46;;;;;;;10.68;5.03;;;7.30;99.90;;;;;;4979820;28;20058;-68
2021/03/31 05:44:14;;;;;;;15.85;4.85;;;7.40;99.90;;;;;;4980023;28;20047;-72
2021/03/31 05:46:42;;;;;;;9.10;5.88;;;7.40;99.90;;;;;;4979490;28;20408;-68
2021/03/31 05:49:08;;;;;;;10.02;5.43;;;7.50;99.90;;;;;;4980082;28;20055;-66
2021/03/31 05:51:35;;;;;;;9.32;6.03;;;7.50;99.90;;;;;;4978449;28;20101;-68
2021/03/31 05:54:02;;;;;;;11.90;5.25;;;7.50;99.90;;;;;;4978323;28;20088;-66
2021/03/31 05:56:32;;;;;;;11.10;4.95;;;7.50;99.90;;;;;;4980163;28;20057;-65
2021/03/31 05:59:03;;;;;;;16.65;4.55;;;7.60;99.90;;;;;;4980048;28;20100;-69
2021/03/31 06:01:29;;;;;;;8.38;5.03;;;7.70;99.90;;;;;;4978873;28;20054;-65
2021/03/31 06:03:57;;;;;;;13.95;4.93;;;7.70;99.90;;;;;;4982586;28;20062;-65
2021/03/31 06:06:24;;;;;;;9.77;5.18;;;7.70;99.90;;;;;;4975803;28;20050;-67
2021/03/31 06:08:51;;;;;;;9.65;4.13;;;7.80;99.90;;;;;;4978023;28;20456;-65
2021/03/31 06:11:20;;;;;;;11.20;4.50;;;7.80;99.90;;;;;;4980521;28;20132;-68
2021/03/31 06:13:54;;;;;;;13.45;5.63;;;7.80;99.90;;;;;;4979829;28;20493;-65
2021/03/31 06:16:37;;;;;;;10.80;5.03;;;7.80;99.90;;;;;;4976501;28;20380;-66
2021/03/31 06:19:19;;;;;;;10.93;4.90;;;7.90;99.90;;;;;;4977723;28;20077;-69
2021/03/31 06:25:22;;;;;;;10.95;4.60;;;8.00;99.90;;;;;;4977259;28;20108;-68
2021/03/31 06:27:55;;;;;;;9.02;4.45;;;8.00;99.90;;;;;;4977516;28;20051;-69
2021/03/31 06:30:23;;;;;;;11.40;6.38;;;8.00;99.90;;;;;;4978476;28;20057;-68
2021/03/31 06:32:54;;;;;;;18.48;6.10;;;8.10;99.90;;;;;;4978400;28;20078;-69
2021/03/31 06:35:24;;;;;;;12.23;5.75;;;8.10;99.90;;;;;;4979861;28;20646;-66
2021/03/31 06:38:02;;;;;;;9.95;5.80;;;8.10;99.90;;;;;;4977779;28;20046;-67
2021/03/31 06:40:38;;;;;;;9.50;5.60;;;8.10;99.90;;;;;;4979509;28;20129;-66
2021/03/31 06:43:25;;;;;;;18.42;6.15;;;8.10;99.90;;;;;;4978581;28;20415;-70
2021/03/31 06:45:56;;;;;;;12.35;5.10;;;8.20;99.90;;;;;;4981672;28;20054;-66
2021/03/31 06:48:26;;;;;;;14.65;5.32;;;8.20;99.90;;;;;;4978865;28;20047;-72
2021/03/31 06:50:53;;;;;;;10.15;5.00;;;8.20;99.90;;;;;;4975138;28;20054;-67
2021/03/31 06:53:31;;;;;;;8.82;4.88;;;8.20;99.90;;;;;;4977648;28;20050;-68
2021/03/31 06:56:05;;;;;;;9.50;4.65;;;8.20;99.90;;;;;;4979528;28;21423;-65
2021/03/31 06:58:35;;;;;;;6.60;4.38;;;8.20;99.90;;;;;;4976681;28;20054;-65
2021/03/31 07:01:01;;;;;;;;;;;8.20;99.90;;;;;;4986312;28;20108;-70
2021/03/31 07:03:28;;;;;;;11.90;4.75;;;8.30;99.90;;;;;;4981568;28;19933;-65
2021/03/31 07:05:55;;;;;;;9.48;4.72;;;8.30;99.90;;;;;;4985619;28;20055;-65
2021/03/31 07:08:21;;;;;;;8.80;4.30;;;8.30;99.90;;;;;;4980154;28;20614;-68
2021/03/31 07:10:54;;;;;;;16.45;4.72;;;8.40;99.90;;;;;;4983523;28;20089;-65
2021/03/31 07:13:27;;;;;;;8.93;4.70;;;8.30;99.90;;;;;;4980264;28;20049;-69
2021/03/31 07:15:55;;;;;;;8.20;5.57;;;8.40;99.90;;;;;;4981640;28;20046;-68
2021/03/31 07:18:23;;;;;;;13.00;4.72;;;8.40;99.90;;;;;;4979784;28;20143;-70
2021/03/31 07:20:50;;;;;;;14.13;5.35;;;8.50;99.90;;;;;;4982215;28;20469;-67
2021/03/31 07:23:20;;;;;;;11.52;6.95;;;8.50;99.90;;;;;;4982126;28;20058;-65
2021/03/31 07:25:47;;;;;;;13.07;4.53;;;8.50;99.90;;;;;;4983790;28;20142;-66
2021/03/31 07:28:23;;;;;;;6.63;3.75;;;8.50;99.90;;;;;;4979510;28;20060;-67
2021/03/31 07:30:50;;;;;;;13.05;4.43;;;8.60;99.90;;;;;;4997999;28;20084;-70
2021/03/31 07:33:25;;;;;;;6.80;4.30;;;8.60;99.90;;;;;;4982697;28;20101;-65
2021/03/31 07:35:53;;;;;;;7.38;3.95;;;8.60;99.90;;;;;;4982930;28;20050;-68
2021/03/31 07:38:22;;;;;;;7.90;4.63;;;8.70;99.90;;;;;;4979402;28;20058;-69
2021/03/31 07:40:50;;;;;;;10.43;4.22;;;8.70;99.90;;;;;;4983614;28;20058;-66
2021/03/31 07:43:23;;;;;;;10.25;4.95;;;8.70;99.90;;;;;;4978862;28;20058;-65
2021/03/31 07:46:02;;;;;;;7.43;4.60;;;8.70;99.90;;;;;;4983253;28;20051;-65
2021/03/31 07:48:30;;;;;;;14.23;6.78;;;8.70;99.90;;;;;;4976282;28;20059;-68
2021/03/31 07:51:13;;;;;;;12.50;4.57;;;8.70;99.90;;;;;;4973164;28;20456;-66
2021/03/31 07:53:43;;;;;;;8.25;4.50;;;8.70;99.90;;;;;;4979672;28;20604;-66
2021/03/31 07:56:18;;;;;;;15.90;4.53;;;8.70;99.90;;;;;;4981932;28;20046;-67
2021/03/31 07:59:03;;;;;;;10.07;3.60;;;8.70;99.90;;;;;;4981587;28;20118;-69
2021/03/31 08:01:34;;;;;;;7.22;3.10;;;8.80;99.90;;;;;;4980627;28;20047;-67
2021/03/31 08:04:02;;;;;;;11.85;3.83;;;8.80;99.90;;;;;;4980087;28;20050;-67
2021/03/31 08:06:30;;;;;;;10.10;4.57;;;8.80;99.90;;;;;;4982441;28;20270;-65
2021/03/31 08:08:59;;;;;;;9.65;4.20;;;8.80;99.90;;;;;;4980129;28;20432;-66
2021/03/31 08:11:43;;;;;;;12.20;5.13;;;8.90;99.90;;;;;;4981167;28;20042;-67
2021/03/31 08:14:14;;;;;;;16.63;5.75;;;8.90;99.90;;;;;;4980550;28;20054;-65
2021/03/31 08:16:43;;;;;;;13.52;5.20;;;9.00;99.90;;;;;;4979067;28;20606;-72
2021/03/31 08:19:21;;;;;;;10.43;4.90;;;9.00;99.90;;;;;;4979589;28;20476;-66
2021/03/31 08:21:50;;;;;;;11.32;5.43;;;9.10;99.90;;;;;;4979747;28;20043;-65
2021/03/31 08:24:17;;;;;;;12.05;5.22;;;9.10;99.90;;;;;;4981179;28;20054;-67
2021/03/31 08:26:55;;;;;;;15.40;4.25;;;9.20;99.90;;;;;;4978401;28;20499;-65
2021/03/31 08:29:22;;;;;;;12.30;4.57;;;9.20;99.90;;;;;;4980890;28;20113;-65
2021/03/31 08:31:57;;;;;;;10.50;5.03;;;9.20;99.90;;;;;;4979435;28;20095;-66
2021/03/31 08:34:24;;;;;;;10.00;4.32;;;9.20;99.90;;;;;;4980151;28;20053;-67
2021/03/31 08:36:51;;;;;;;17.08;4.18;;;9.20;99.90;;;;;;4980661;28;20043;-65
2021/03/31 08:39:17;;;;;;;13.45;3.85;;;9.20;99.90;;;;;;4980597;28;20050;-66
2021/03/31 08:41:47;;;;;;;13.88;4.35;;;9.20;99.90;;;;;;4981118;28;20338;-66
2021/03/31 08:44:29;;;;;;;5.82;3.28;;;9.20;99.90;;;;;;4976672;28;20077;-65
2021/03/31 08:47:07;;;;;;;4.68;4.05;;;9.20;99.90;;;;;;4978789;28;20625;-65
2021/03/31 08:49:35;;;;;;;8.23;4.00;;;9.30;99.90;;;;;;4980297;28;20047;-69
2021/03/31 08:52:05;;;;;;;15.88;4.60;;;9.30;99.90;;;;;;4977371;28;20082;-65
2021/03/31 08:54:35;;;;;;;10.15;3.20;;;9.30;99.90;;;;;;4981041;28;20502;-72
2021/03/31 08:57:11;;;;;;;7.70;3.67;;;9.50;99.90;;;;;;4981171;28;20058;-64
2021/03/31 08:59:40;;;;;;;8.50;3.38;;;9.50;99.90;;;;;;4983021;28;20475;-64
2021/03/31 09:02:07;;;;;;;6.93;4.35;;;9.60;99.90;;;;;;4978536;28;20038;-66
2021/03/31 09:04:55;;;;;;;8.65;3.08;;;9.70;99.90;;;;;;4980950;28;20050;-68
2021/03/31 09:07:22;;;;;;;11.38;4.38;;;9.80;99.90;;;;;;4979050;28;20047;-66
2021/03/31 09:09:49;;;;;;;12.10;5.07;;;9.80;99.90;;;;;;4981016;28;20077;-69
2021/03/31 09:12:21;;;;;;;7.43;3.28;;;9.80;99.90;;;;;;4979011;28;20390;-64
2021/03/31 09:14:55;;;;;;;8.57;4.22;;;9.80;99.90;;;;;;4981022;28;20066;-64
2021/03/31 09:17:27;;;;;;;10.88;5.22;;;9.90;99.90;;;;;;4995225;28;20054;-67
2021/03/31 09:20:06;;;;;;;18.77;4.55;;;9.80;99.90;;;;;;4979451;28;20054;-66
2021/03/31 09:22:34;;;;;;;15.73;4.13;;;9.80;99.90;;;;;;4977330;28;20096;-65
2021/03/31 09:25:02;;;;;;;15.23;5.50;;;9.90;99.90;;;;;;4980682;28;20413;-66
2021/03/31 09:27:33;;;;;;;9.93;3.83;;;9.90;99.90;;;;;;4980542;28;20150;-65
2021/03/31 09:30:04;;;;;;;4.38;3.20;;;9.90;99.90;;;;;;4978333;28;20058;-66
2021/03/31 09:35:14;;;;;;;23.45;4.70;;;10.00;99.90;;;;;;4980850;28;20062;-71
2021/03/31 09:37:43;;;;;;;14.75;5.85;;;10.00;99.90;;;;;;4979114;28;20049;-67
2021/03/31 09:40:30;;;;;;;16.63;4.28;;;9.90;99.90;;;;;;4974474;28;20060;-67
2021/03/31 09:43:01;;;;;;;12.60;5.20;;;10.00;99.90;;;;;;4980281;28;20054;-66
2021/03/31 09:45:30;;;;;;;9.52;3.65;;;10.10;99.90;;;;;;4979133;28;20128;-65
2021/03/31 09:48:01;;;;;;;11.18;4.35;;;10.20;99.90;;;;;;4980983;28;20046;-65
2021/03/31 09:50:29;;;;;;;8.88;4.60;;;10.30;99.90;;;;;;4992385;28;20515;-66
2021/03/31 09:52:57;;;;;;;10.32;4.95;;;10.40;99.90;;;;;;5010861;28;20046;-68
2021/03/31 09:55:24;;;;;;;13.30;3.30;;;10.40;99.90;;;;;;4980284;28;20400;-66
2021/03/31 09:57:52;;;;;;;17.33;4.13;;;10.50;99.90;;;;;;4980677;28;20109;-68
2021/03/31 10:00:21;;;;;;;11.98;5.57;;;10.50;99.90;;;;;;4978755;28;20109;-71
2021/03/31 10:02:48;;;;;;;19.15;4.80;;;10.60;99.90;;;;;;4978768;28;20775;-66
2021/03/31 10:05:19;;;;;;;8.38;2.85;;;10.70;99.90;;;;;;4978030;28;20057;-69
2021/03/31 10:07:58;;;;;;;16.48;3.97;;;10.80;99.90;;;;;;4979516;28;20038;-68
2021/03/31 10:10:44;;;;;;;10.88;4.18;;;11.00;99.90;;;;;;4976041;28;20060;-72
2021/03/31 10:13:13;;;;;;;8.55;3.80;;;11.10;99.90;;;;;;4980563;28;20539;-66
2021/03/31 10:15:43;;;;;;;8.50;3.33;;;11.10;99.90;;;;;;4977174;28;20169;-66
2021/03/31 10:18:13;;;;;;;8.10;2.47;;;11.20;99.90;;;;;;4978194;28;20043;-66
2021/03/31 10:20:46;;;;;;;;;;;11.20;99.90;;;;;;4980342;28;20062;-69
2021/03/31 10:23:30;;;;;;;8.23;2.53;;;11.20;99.90;;;;;;4980551;28;19925;-68
2021/03/31 10:26:26;;;;;;;8.88;2.80;;;11.30;99.90;;;;;;4979199;28;20096;-67
2021/03/31 10:28:59;;;;;;;7.18;3.20;;;11.30;99.90;;;;;;4980405;28;20046;-67
2021/03/31 10:31:46;;;;;;;10.32;3.65;;;11.30;99.90;;;;;;4977352;28;20050;-67
2021/03/31 10:34:17;;;;;;;14.57;2.95;;;11.40;99.90;;;;;;4982110;28;20062;-68
2021/03/31 10:50:17;;;;;;;7.68;3.00;;;12.00;99.90;;;;;;4980029;28;20109;-68
2021/03/31 10:52:46;;;;;;;7.13;2.00;;;12.00;99.90;;;;;;4982472;28;20073;-65
2021/03/31 10:55:13;;;;;;;4.68;2.75;;;12.10;99.90;;;;;;4980250;28;20058;-67
2021/03/31 10:57:39;;;;;;;4.55;2.88;;;12.00;99.90;;;;;;4984177;28;20477;-66
2021/03/31 11:00:07;;;;;;;10.50;3.97;;;12.00;99.90;;;;;;4971981;28;20062;-65
2021/03/31 11:02:33;;;;;;;8.45;2.38;;;11.90;99.90;;;;;;4981555;28;20050;-67
2021/03/31 11:05:00;;;;;;;4.72;2.00;;;12.00;99.90;;;;;;4985510;28;20043;-65
2021/03/31 11:07:26;;;;;;;8.23;3.70;;;12.00;99.90;;;;;;4981981;28;20637;-63
2021/03/31 11:09:53;;;;;;;4.53;3.25;;;12.00;99.90;;;;;;4982617;28;20105;-64
2021/03/31 11:12:26;;;;;;;15.77;4.05;;;12.00;99.90;;;;;;4980559;28;20054;-68
2021/03/31 11:14:53;;;;;;;9.00;2.30;;;11.90;99.90;;;;;;4981933;28;20057;-65
2021/03/31 11:18:33;;;;;;;9.32;3.22;;;11.90;99.90;;;;;;4978403;28;20046;-67
2021/03/31 11:25:56;;;;;;;11.80;3.13;;;12.00;99.90;;;;;;4983194;28;20049;-68
2021/03/31 11:28:22;;;;;;;11.07;4.65;;;12.00;99.90;;;;;;4970961;28;20055;-65
2021/03/31 11:30:53;;;;;;;10.05;3.90;;;12.10;99.90;;;;;;4982375;28;20049;-69
2021/03/31 11:33:23;;;;;;;10.27;4.28;;;12.40;99.90;;;;;;4979666;28;20054;-68
2021/03/31 11:35:53;;;;;;;9.68;3.35;;;12.50;99.90;;;;;;4982426;28;20126;-68
2021/03/31 11:38:19;;;;;;;6.85;3.53;;;12.50;99.90;;;;;;4980945;28;20046;-67
2021/03/31 11:40:46;;;;;;;14.13;3.83;;;12.70;99.90;;;;;;4982922;28;20054;-67
2021/03/31 11:43:14;;;;;;;14.93;3.75;;;12.80;99.90;;;;;;4982230;28;20057;-68
2021/03/31 11:45:41;;;;;;;8.13;4.38;;;12.90;99.90;;;;;;4980448;28;20049;-65
2021/03/31 11:48:08;;;;;;;7.78;3.10;;;13.00;99.90;;;;;;4982589;28;20054;-67
2021/03/31 11:50:34;;;;;;;11.88;3.03;;;12.90;99.90;;;;;;4980813;28;20093;-65
2021/03/31 11:53:01;;;;;;;10.48;3.60;;;12.90;99.90;;;;;;4985458;28;20503;-67
2021/03/31 11:55:28;;;;;;;19.90;4.18;;;12.80;99.90;;;;;;4984376;28;20054;-65
2021/03/31 11:57:54;;;;;;;12.57;2.47;;;12.60;99.90;;;;;;4985860;28;20166;-69
2021/03/31 12:00:21;;;;;;;12.73;3.30;;;12.60;99.90;;;;;;4978433;28;20058;-66
2021/03/31 12:02:48;;;;;;;14.27;3.95;;;12.50;99.90;;;;;;4979624;28;20195;-68
2021/03/31 12:05:17;;;;;;;9.23;3.28;;;12.50;99.90;;;;;;4983916;28;20133;-67
2021/03/31 12:07:44;;;;;;;10.52;2.60;;;12.40;99.90;;;;;;4981073;28;20054;-67
2021/03/31 12:10:11;;;;;;;17.83;3.08;;;12.30;99.90;;;;;;4975005;28;20054;-66
2021/03/31 12:12:39;;;;;;;5.78;3.20;;;12.20;99.90;;;;;;4980896;28;20567;-67
2021/03/31 12:15:11;;;;;;;7.50;2.38;;;12.20;99.90;;;;;;4980467;28;20046;-64
2021/03/31 12:17:39;;;;;;;7.47;2.67;;;12.30;99.90;;;;;;4980965;28;20061;-65
2021/03/31 12:20:09;;;;;;;10.07;3.78;;;12.20;99.90;;;;;;4980823;28;20051;-65
2021/03/31 12:22:36;;;;;;;7.05;2.53;;;12.20;99.90;;;;;;4980656;28;20050;-64
2021/03/31 12:25:04;;;;;;;8.80;2.65;;;12.10;99.90;;;;;;4982778;28;20144;-66
2021/03/31 12:27:33;;;;;;;3.97;2.58;;;12.10;99.90;;;;;;4979515;28;20050;-66
2021/03/31 12:30:07;;;;;;;7.00;2.58;;;12.10;99.90;;;;;;4980986;28;20117;-70
2021/03/31 12:32:34;;;;;;;5.68;2.70;;;12.10;99.90;;;;;;4980755;28;20052;-65
2021/03/31 12:35:03;;;;;;;9.07;2.55;;;12.10;99.90;;;;;;4981333;28;20125;-64
2021/03/31 12:37:32;;;;;;;8.25;2.85;;;12.10;99.90;;;;;;4980487;28;20418;-67
2021/03/31 12:39:59;;;;;;;12.93;4.30;;;12.20;99.90;;;;;;4983602;28;20066;-64
2021/03/31 12:42:26;;;;;;;16.40;4.90;;;12.20;99.90;;;;;;4978943;28;20046;-65
2021/03/31 12:44:52;;;;;;;28.73;6.05;;;12.30;99.90;;;;;;4985903;28;20543;-65
2021/03/31 12:47:21;;;;;;;18.50;6.35;;;12.30;99.90;;;;;;4980157;28;20054;-65
2021/03/31 12:49:49;;;;;;;5.15;3.42;;;12.40;99.90;;;;;;4975157;28;20055;-70
2021/03/31 12:52:24;;;;;;;13.18;3.17;;;12.40;99.90;;;;;;4978416;28;20467;-64
2021/03/31 12:55:05;;;;;;;7.70;2.60;;;12.40;99.90;;;;;;4981300;28;20046;-68
2021/03/31 12:57:32;;;;;;;9.60;2.80;;;12.50;99.90;;;;;;4978974;28;20065;-71
2021/03/31 13:00:00;;;;;;;7.60;3.47;;;12.60;99.90;;;;;;4977829;28;20166;-66
2021/03/31 13:02:48;;;;;;;7.95;3.50;;;12.60;99.90;;;;;;4976499;28;20060;-66
2021/03/31 13:05:36;;;;;;;12.40;3.65;;;12.60;99.90;;;;;;4977293;28;20132;-67
2021/03/31 13:08:22;;;;;;;12.05;3.13;;;12.60;99.90;;;;;;4976403;28;20046;-65
2021/03/31 13:11:11;;;;;;;12.75;3.72;;;12.60;99.90;;;;;;4978741;28;20205;-65
2021/03/31 13:16:57;;;;;;;7.72;2.72;;;12.60;99.90;;;;;;4977980;28;20042;-66
2021/03/31 13:22:57;;;;;;;5.50;3.25;;;12.70;99.90;;;;;;4977693;28;20089;-70
2021/03/31 13:33:10;;;;;;;13.20;3.83;;;12.70;99.90;;;;;;4978236;28;20530;-66
2021/03/31 13:40:42;;;;;;;9.80;3.45;;;12.70;99.90;;;;;;4979327;28;20065;-65
2021/03/31 13:43:09;;;;;;;5.90;3.25;;;12.60;99.90;;;;;;4978534;28;20050;-65
2021/03/31 13:45:35;;;;;;;12.30;3.88;;;12.60;99.90;;;;;;4977508;28;20053;-66
2021/03/31 13:48:14;;;;;;;11.80;3.87;;;12.50;99.90;;;;;;4978440;28;20050;-67
2021/03/31 13:51:02;;;;;;;14.48;4.20;;;12.50;99.90;;;;;;4981114;28;20173;-65